Time;durP1;ratioP1;P1;durP2;ratioP2;P2;SDS_P1;SDS_P2;PMS_P1;PMS_P2;Temp;Humidity;BMP_temperature;BMP_pressure;BME280_temperature;BME280_humidity;BME280_pressure;Samples;Min_cycle;Max_cycle;Signal;HPM_P1;HPM_P2
2023/06/02 00:01:58;;;;;;;1.53;1.43;;;;;;;18.22;64.44;95220.19;4352493;32;20193;-61
2023/06/02 00:04:26;;;;;;;6.10;1.57;;;;;;;18.05;65.25;95217.81;4375821;32;20223;-61
2023/06/02 00:06:55;;;;;;;1.93;1.83;;;;;;;18.04;65.50;95216.25;4376785;32;20203;-61
2023/06/02 00:09:21;;;;;;;1.37;1.37;;;;;;;18.15;65.29;95218.06;4368196;32;20180;-61
2023/06/02 00:11:48;;;;;;;1.13;1.13;;;;;;;18.11;64.91;95217.19;4370910;32;20204;-62
2023/06/02 00:14:15;;;;;;;2.00;1.90;;;;;;;18.12;65.02;95218.75;4361752;32;20239;-61
2023/06/02 00:16:45;;;;;;;1.40;1.33;;;;;;;18.03;65.18;95223.50;4365607;32;20268;-61
2023/06/02 00:19:18;;;;;;;2.10;1.90;;;;;;;18.04;65.52;95211.66;4377627;32;20204;-61
2023/06/02 00:21:45;;;;;;;6.47;1.43;;;;;;;18.00;65.21;95213.47;4377602;32;20249;-61
2023/06/02 00:24:12;;;;;;;1.90;1.80;;;;;;;17.88;66.31;95213.50;4386028;32;20189;-62
2023/06/02 00:26:39;;;;;;;1.03;1.03;;;;;;;17.73;66.86;95211.53;4351959;32;20300;-60
2023/06/02 00:29:04;;;;;;;2.93;1.97;;;;;;;17.65;66.98;95213.28;4366986;32;20361;-60
2023/06/02 00:31:33;;;;;;;1.00;1.00;;;;;;;17.85;66.23;95212.31;4364966;32;20192;-61
2023/06/02 00:34:00;;;;;;;1.10;1.10;;;;;;;17.84;66.92;95205.38;4370289;32;20308;-60
2023/06/02 00:36:26;;;;;;;1.57;1.57;;;;;;;17.90;66.56;95215.84;4358137;32;20214;-61
2023/06/02 00:38:53;;;;;;;1.73;1.70;;;;;;;17.83;67.01;95214.53;4369808;32;20197;-61
2023/06/02 00:41:18;;;;;;;1.93;1.83;;;;;;;17.82;67.05;95226.41;4341123;32;20236;-61
2023/06/02 00:43:45;;;;;;;2.43;2.03;;;;;;;17.81;67.30;95232.88;4362274;32;20189;-61
2023/06/02 00:46:10;;;;;;;1.50;1.47;;;;;;;17.80;67.32;95227.84;4374931;32;20211;-61
2023/06/02 00:48:38;;;;;;;1.33;1.23;;;;;;;17.65;67.99;95215.16;4348155;32;20279;-61
2023/06/02 00:51:07;;;;;;;4.30;1.40;;;;;;;17.89;67.14;95217.75;4331255;32;20244;-61
2023/06/02 00:53:40;;;;;;;1.80;1.80;;;;;;;17.77;67.65;95215.91;4356455;32;20196;-61
2023/06/02 00:56:12;;;;;;;1.90;1.80;;;;;;;17.60;68.15;95216.16;4370735;32;20284;-61
2023/06/02 00:58:44;;;;;;;1.60;1.53;;;;;;;17.62;68.52;95215.81;4340954;32;20259;-61
2023/06/02 01:01:12;;;;;;;1.73;1.63;;;;;;;17.74;68.39;95219.25;4362643;32;20241;-61
2023/06/02 01:04:01;;;;;;;1.40;1.30;;;;;;;17.78;67.71;95214.78;4368904;32;20193;-61
2023/06/02 01:06:36;;;;;;;3.00;2.00;;;;;;;17.80;68.37;95215.22;4364320;32;20196;-61
2023/06/02 01:09:06;;;;;;;1.90;1.80;;;;;;;17.79;67.94;95205.59;4348796;32;20350;-61
2023/06/02 01:11:33;;;;;;;1.60;1.50;;;;;;;17.82;68.09;95210.28;4362455;32;20197;-61
2023/06/02 01:14:01;;;;;;;1.70;1.60;;;;;;;17.82;67.99;95204.94;4333039;32;20232;-61
2023/06/02 01:16:30;;;;;;;3.23;2.00;;;;;;;17.81;68.50;95208.72;4361439;32;20189;-61
2023/06/02 01:18:59;;;;;;;1.07;1.07;;;;;;;17.74;68.52;95211.22;4346357;32;20207;-61
2023/06/02 01:21:30;;;;;;;2.43;2.27;;;;;;;17.47;69.81;95206.56;4356461;32;20222;-61
2023/06/02 01:23:59;;;;;;;2.00;1.90;;;;;;;17.59;69.46;95201.19;4359500;32;20196;-61
2023/06/02 01:26:25;;;;;;;1.23;1.23;;;;;;;17.64;69.02;95200.97;4364524;32;20201;-61
2023/06/02 01:28:51;;;;;;;2.27;2.00;;;;;;;17.61;69.41;95207.00;4354192;32;20248;-61
2023/06/02 01:31:28;;;;;;;2.17;2.07;;;;;;;17.60;69.25;95196.59;4374153;32;20184;-61
2023/06/02 01:34:14;;;;;;;2.20;2.10;;;;;;;17.36;70.00;95197.44;4378771;32;20193;-60
2023/06/02 01:36:42;;;;;;;1.13;1.13;;;;;;;17.39;70.14;95202.91;4364505;32;20245;-61
2023/06/02 01:39:09;;;;;;;1.40;1.40;;;;;;;17.35;70.46;95211.97;4369050;32;20196;-61
2023/06/02 01:41:44;;;;;;;2.40;2.03;;;;;;;17.23;70.91;95201.28;4344950;32;20247;-61
2023/06/02 01:44:12;;;;;;;3.50;2.07;;;;;;;17.20;71.00;95210.78;4362020;32;20184;-60
2023/06/02 01:46:44;;;;;;;1.93;1.83;;;;;;;17.35;70.67;95204.69;4371738;32;20247;-61
2023/06/02 01:49:19;;;;;;;1.80;1.70;;;;;;;17.24;69.86;95203.62;4368336;32;20276;-61
2023/06/02 01:51:46;;;;;;;2.00;1.90;;;;;;;17.30;70.69;95204.16;4347142;32;20211;-61
2023/06/02 01:54:12;;;;;;;1.77;1.70;;;;;;;17.37;70.51;95199.00;4369740;32;20201;-61
2023/06/02 01:56:39;;;;;;;6.57;1.87;;;;;;;17.30;71.02;95198.78;4368087;32;20201;-61
2023/06/02 01:59:07;;;;;;;2.83;2.07;;;;;;;17.30;71.02;95194.19;4361783;32;20197;-61
2023/06/02 02:01:34;;;;;;;0.80;0.80;;;;;;;17.23;71.44;95190.56;4350770;32;20193;-61
2023/06/02 02:04:00;;;;;;;0.93;0.93;;;;;;;17.27;71.41;95194.88;4341471;32;20184;-61
2023/06/02 02:06:30;;;;;;;1.83;1.83;;;;;;;17.24;71.20;95187.53;4372344;32;20244;-61
2023/06/02 02:08:57;;;;;;;1.47;1.47;;;;;;;17.32;70.73;95191.19;4371563;32;20193;-61
2023/06/02 02:11:26;;;;;;;1.23;1.23;;;;;;;17.16;71.60;95191.91;4369037;32;20235;-61
2023/06/02 02:13:54;;;;;;;2.33;2.23;;;;;;;17.08;71.91;95192.78;4356906;32;20210;-61
2023/06/02 02:16:22;;;;;;;2.13;1.97;;;;;;;17.16;71.74;95194.56;4367137;32;20219;-61
2023/06/02 02:18:52;;;;;;;3.37;2.10;;;;;;;16.85;72.75;95194.38;4371785;32;20275;-60
2023/06/02 02:21:17;;;;;;;11.63;1.60;;;;;;;17.08;72.40;95197.38;4381687;32;20189;-60
2023/06/02 02:23:45;;;;;;;2.13;2.03;;;;;;;17.02;72.52;95193.38;4372443;32;20228;-61
2023/06/02 02:26:11;;;;;;;1.70;1.60;;;;;;;17.08;72.32;95203.50;4357548;32;20226;-61
2023/06/02 02:28:37;;;;;;;2.47;2.37;;;;;;;17.14;72.28;95201.41;4350230;32;20207;-61
2023/06/02 02:31:07;;;;;;;1.93;1.83;;;;;;;16.99;72.85;95197.50;4365750;32;20185;-60
2023/06/02 02:33:33;;;;;;;4.77;2.10;;;;;;;16.89;73.45;95197.16;4353419;32;20196;-61
2023/06/02 02:36:00;;;;;;;2.27;2.17;;;;;;;16.85;73.45;95199.72;4353979;32;20251;-61
2023/06/02 02:38:27;;;;;;;1.63;1.63;;;;;;;16.85;73.55;95186.34;4341193;32;20193;-60
2023/06/02 02:40:54;;;;;;;2.10;2.00;;;;;;;16.89;73.68;95194.50;4344577;32;20204;-61
2023/06/02 02:43:21;;;;;;;2.43;1.93;;;;;;;16.75;74.25;95194.84;4356379;32;20288;-63
2023/06/02 02:45:50;;;;;;;1.30;1.20;;;;;;;16.65;74.71;95192.59;4361871;32;20196;-63
2023/06/02 02:48:18;;;;;;;1.70;1.60;;;;;;;16.84;74.05;95193.59;4350604;32;20268;-63
2023/06/02 02:50:44;;;;;;;1.80;1.70;;;;;;;16.88;74.15;95196.38;4358379;32;20219;-63
2023/06/02 02:53:11;;;;;;;3.43;2.40;;;;;;;16.85;74.27;95189.00;4366150;32;20199;-62
2023/06/02 02:55:40;;;;;;;2.00;1.90;;;;;;;16.87;74.06;95186.00;4368542;32;20206;-63
2023/06/02 02:58:08;;;;;;;1.23;1.23;;;;;;;16.73;74.82;95189.03;4381056;32;20207;-63
2023/06/02 03:00:35;;;;;;;1.87;1.77;;;;;;;16.81;74.27;95183.56;4377776;32;20248;-63
2023/06/02 03:03:05;;;;;;;1.57;1.47;;;;;;;16.69;75.11;95185.44;4371379;32;20207;-63
2023/06/02 03:05:34;;;;;;;7.67;2.17;;;;;;;16.75;74.85;95189.47;4371142;32;20202;-62
2023/06/02 03:08:02;;;;;;;4.70;1.83;;;;;;;16.90;74.16;95180.75;4343616;32;20294;-61
2023/06/02 03:10:28;;;;;;;2.20;2.10;;;;;;;16.86;74.42;95182.53;4375519;32;20199;-63
2023/06/02 03:12:55;;;;;;;2.63;2.43;;;;;;;16.82;74.31;95174.41;4378052;32;20226;-63
2023/06/02 03:15:21;;;;;;;2.17;2.07;;;;;;;16.80;74.41;95181.22;4359962;32;20252;-63
2023/06/02 03:17:50;;;;;;;2.30;2.07;;;;;;;16.84;74.41;95184.78;4368657;32;20210;-61
2023/06/02 03:20:19;;;;;;;1.23;1.23;;;;;;;16.54;75.16;95188.78;4326154;32;20263;-61
2023/06/02 03:22:46;;;;;;;0.93;0.93;;;;;;;16.58;74.93;95189.69;4360031;32;20196;-61
2023/06/02 03:25:21;;;;;;;1.73;1.63;;;;;;;16.74;74.89;95179.88;4372684;32;20236;-60
2023/06/02 03:27:50;;;;;;;2.27;2.17;;;;;;;16.79;74.55;95185.81;4333122;32;20212;-61
2023/06/02 03:30:17;;;;;;;1.60;1.57;;;;;;;16.71;75.26;95196.63;4354469;32;20215;-61
2023/06/02 03:32:44;;;;;;;1.70;1.70;;;;;;;16.69;75.33;95196.16;4338432;32;20205;-61
2023/06/02 03:35:11;;;;;;;1.67;1.67;;;;;;;16.58;75.53;95195.81;4360039;32;20279;-61
2023/06/02 03:37:39;;;;;;;2.27;1.97;;;;;;;16.64;75.61;95196.38;4333936;32;20297;-61
2023/06/02 03:40:07;;;;;;;2.20;2.10;;;;;;;16.59;75.01;95196.59;4371373;32;20201;-61
2023/06/02 03:42:33;;;;;;;1.90;1.83;;;;;;;16.64;74.93;95199.06;4351941;32;20185;-61
2023/06/02 03:45:02;;;;;;;1.63;1.63;;;;;;;16.39;75.83;95193.69;4362898;32;20278;-61
2023/06/02 03:47:27;;;;;;;1.87;1.57;;;;;;;16.26;76.64;95199.31;4362512;32;20216;-61
2023/06/02 03:49:59;;;;;;;1.10;1.10;;;;;;;16.56;75.62;95192.69;4342333;32;20185;-61
2023/06/02 03:52:25;;;;;;;1.37;1.37;;;;;;;16.91;74.25;95203.75;4354190;32;20255;-61
2023/06/02 03:54:52;;;;;;;1.87;1.77;;;;;;;16.87;74.29;95208.22;4378148;32;20212;-61
2023/06/02 03:57:20;;;;;;;2.00;1.90;;;;;;;16.98;73.92;95213.94;4369808;32;20184;-61
2023/06/02 03:59:45;;;;;;;1.80;1.70;;;;;;;17.04;73.40;95213.34;4341565;32;20256;-61
2023/06/02 04:02:15;;;;;;;1.73;1.63;;;;;;;17.32;72.90;95218.00;4351669;32;20189;-61
2023/06/02 04:04:43;;;;;;;1.77;1.67;;;;;;;17.28;72.79;95214.44;4375601;32;20268;-61
2023/06/02 04:07:10;;;;;;;1.57;1.53;;;;;;;17.43;72.38;95213.75;4359691;32;20275;-61
2023/06/02 04:09:36;;;;;;;1.60;1.50;;;;;;;17.23;72.63;95220.03;4382419;32;20275;-61
2023/06/02 04:12:05;;;;;;;1.63;1.57;;;;;;;17.30;72.89;95214.87;4370943;32;20196;-61
2023/06/02 04:14:37;;;;;;;0.93;0.93;;;;;;;17.32;72.75;95212.63;4360336;32;20343;-61
2023/06/02 04:17:05;;;;;;;1.93;1.83;;;;;;;17.45;72.29;95217.66;4369758;32;20281;-61
2023/06/02 04:19:32;;;;;;;1.20;1.20;;;;;;;17.33;72.38;95224.94;4358779;32;20270;-61
2023/06/02 04:22:01;;;;;;;2.20;2.10;;;;;;;17.27;72.75;95219.00;4371886;32;20205;-61
2023/06/02 04:24:28;;;;;;;1.97;1.87;;;;;;;17.33;72.67;95222.25;4362201;32;20212;-61
2023/06/02 04:26:54;;;;;;;0.90;0.90;;;;;;;17.39;72.83;95229.72;4376191;32;20185;-61
2023/06/02 04:29:23;;;;;;;2.47;2.27;;;;;;;17.46;72.50;95232.59;4367289;32;20271;-61
2023/06/02 04:31:50;;;;;;;2.23;2.07;;;;;;;17.44;72.66;95228.72;4353336;32;20189;-61
2023/06/02 04:34:18;;;;;;;2.37;2.03;;;;;;;17.61;71.89;95231.13;4354605;32;20177;-61
2023/06/02 04:36:43;;;;;;;2.57;2.40;;;;;;;17.38;72.60;95228.16;4377891;32;20184;-61
2023/06/02 04:39:10;;;;;;;1.43;1.43;;;;;;;17.55;72.31;95224.44;4354584;32;20245;-62
2023/06/02 04:41:36;;;;;;;2.60;2.43;;;;;;;17.46;72.10;95229.13;4370475;32;20192;-61
2023/06/02 04:44:05;;;;;;;1.47;1.47;;;;;;;17.31;73.04;95232.53;4354936;32;20306;-61
2023/06/02 04:46:37;;;;;;;3.13;2.23;;;;;;;17.40;72.58;95235.88;4366855;32;20262;-61
2023/06/02 04:49:08;;;;;;;1.93;1.83;;;;;;;17.45;72.64;95228.38;4376122;32;20211;-61
2023/06/02 04:51:35;;;;;;;1.30;1.30;;;;;;;17.57;72.15;95235.59;4374744;32;20244;-61
2023/06/02 04:54:05;;;;;;;1.87;1.77;;;;;;;17.68;71.94;95242.09;4366580;32;20207;-61
2023/06/02 04:56:31;;;;;;;2.10;2.00;;;;;;;17.69;71.75;95238.28;4360558;32;20223;-61
2023/06/02 04:58:58;;;;;;;1.00;1.00;;;;;;;17.70;71.31;95234.47;4369081;32;20239;-61
2023/06/02 05:01:24;;;;;;;3.50;2.67;;;;;;;17.83;71.48;95227.97;4377267;32;20188;-61
2023/06/02 05:03:51;;;;;;;1.53;1.43;;;;;;;17.73;71.53;95233.81;4367797;32;20232;-62
2023/06/02 05:06:18;;;;;;;1.57;1.47;;;;;;;17.81;71.27;95232.09;4387368;32;20237;-61
2023/06/02 05:08:44;;;;;;;2.57;2.20;;;;;;;17.83;71.53;95233.34;4368185;32;20197;-61
2023/06/02 05:11:11;;;;;;;3.57;2.40;;;;;;;17.87;71.14;95235.34;4369764;32;20300;-61
2023/06/02 05:13:38;;;;;;;1.73;1.63;;;;;;;17.85;71.31;95233.78;4359648;32;21540;-61
2023/06/02 05:16:04;;;;;;;2.23;2.10;;;;;;;17.85;70.99;95231.09;4365190;32;20228;-61
2023/06/02 05:18:31;;;;;;;2.17;1.40;;;;;;;18.02;71.00;95234.59;4369525;32;20251;-61
2023/06/02 05:20:58;;;;;;;1.27;1.27;;;;;;;18.06;70.78;95235.47;4370662;32;20193;-61
2023/06/02 05:23:26;;;;;;;1.93;1.73;;;;;;;18.02;70.33;95240.75;4372227;32;20204;-61
2023/06/02 05:25:53;;;;;;;1.60;1.60;;;;;;;18.12;69.92;95232.19;4348225;32;20192;-61
2023/06/02 05:28:22;;;;;;;1.70;1.70;;;;;;;18.06;66.85;95228.22;4376870;32;20188;-61
2023/06/02 05:30:51;;;;;;;1.10;1.10;;;;;;;17.99;67.67;95229.91;4385918;32;20241;-61
2023/06/02 05:33:17;;;;;;;3.30;2.33;;;;;;;18.01;66.12;95233.81;4359085;32;20185;-61
2023/06/02 05:35:46;;;;;;;1.03;1.03;;;;;;;17.91;67.11;95236.19;4347160;32;20252;-61
2023/06/02 05:38:17;;;;;;;2.07;1.97;;;;;;;18.13;67.29;95236.44;4358025;32;20201;-61
2023/06/02 05:41:03;;;;;;;1.10;1.10;;;;;;;18.29;67.31;95231.09;4365864;32;20203;-61
2023/06/02 05:43:31;;;;;;;1.80;1.47;;;;;;;18.32;66.31;95225.03;4356871;32;20192;-61
2023/06/02 05:45:59;;;;;;;1.47;1.37;;;;;;;18.50;66.64;95236.22;4356701;32;20179;-61
2023/06/02 05:48:29;;;;;;;1.87;1.60;;;;;;;18.56;66.03;95237.53;4343517;32;20189;-61
2023/06/02 05:50:55;;;;;;;1.30;1.30;;;;;;;18.60;65.21;95225.00;4347799;32;20197;-61
2023/06/02 05:53:23;;;;;;;1.60;1.50;;;;;;;18.65;65.05;95238.19;4360412;32;20205;-61
2023/06/02 05:55:48;;;;;;;1.73;1.63;;;;;;;18.81;64.83;95236.28;4370336;32;20192;-61
2023/06/02 05:58:14;;;;;;;1.80;1.70;;;;;;;18.86;65.19;95244.09;4360709;32;20181;-61
2023/06/02 06:00:41;;;;;;;1.57;1.47;;;;;;;18.92;63.48;95241.91;4368903;32;20189;-61
2023/06/02 06:03:07;;;;;;;1.00;1.00;;;;;;;18.77;63.67;95243.47;4365179;32;20267;-61
2023/06/02 06:05:34;;;;;;;3.83;1.93;;;;;;;18.80;63.93;95244.69;4359889;32;20260;-61
2023/06/02 06:07:59;;;;;;;2.93;1.93;;;;;;;18.82;63.23;95245.91;4351747;32;20241;-62
2023/06/02 06:10:26;;;;;;;3.13;2.33;;;;;;;18.75;62.84;95244.94;4362035;32;20251;-61
2023/06/02 06:12:54;;;;;;;1.77;1.67;;;;;;;18.82;61.92;95234.38;4356894;32;20204;-61
2023/06/02 06:15:20;;;;;;;1.80;1.63;;;;;;;18.94;63.23;95245.03;4353673;32;20240;-61
2023/06/02 06:17:50;;;;;;;1.10;1.10;;;;;;;19.02;61.80;95252.13;4376767;32;20248;-61
2023/06/02 06:20:16;;;;;;;2.47;2.20;;;;;;;19.39;59.96;95257.97;4326817;32;20193;-61
2023/06/02 06:22:43;;;;;;;2.63;2.03;;;;;;;19.50;58.83;95259.03;4340588;32;20196;-61
2023/06/02 06:25:13;;;;;;;1.27;1.27;;;;;;;19.73;58.94;95255.66;4370659;32;20211;-61
2023/06/02 06:27:39;;;;;;;1.33;1.33;;;;;;;19.79;57.80;95255.03;4369838;32;20200;-61
2023/06/02 06:30:06;;;;;;;1.80;1.70;;;;;;;19.81;56.92;95255.44;4350702;32;20255;-61
2023/06/02 06:32:33;;;;;;;2.30;1.67;;;;;;;19.74;56.33;95263.41;4375918;32;20193;-61
2023/06/02 06:35:00;;;;;;;1.70;1.60;;;;;;;19.78;55.16;95258.84;4360596;32;20249;-61
2023/06/02 06:37:28;;;;;;;1.40;1.40;;;;;;;19.73;55.05;95267.22;4351374;32;20201;-61
2023/06/02 06:39:55;;;;;;;2.10;1.67;;;;;;;19.80;55.52;95275.44;4372155;32;20192;-61
2023/06/02 06:42:22;;;;;;;2.73;1.40;;;;;;;19.99;55.08;95265.78;4356425;32;20260;-61
2023/06/02 06:44:50;;;;;;;3.13;1.73;;;;;;;20.13;56.11;95272.25;4366014;32;20189;-61
2023/06/02 06:47:20;;;;;;;1.10;1.10;;;;;;;20.21;54.84;95276.63;4353626;32;20197;-62
2023/06/02 06:49:46;;;;;;;1.50;1.50;;;;;;;20.29;54.41;95277.56;4328024;32;20217;-61
2023/06/02 06:52:13;;;;;;;1.40;1.30;;;;;;;20.29;53.58;95268.69;4357773;32;20204;-61
2023/06/02 06:54:39;;;;;;;1.80;1.70;;;;;;;20.17;53.86;95267.69;4371736;32;20199;-61
2023/06/02 06:57:05;;;;;;;1.57;1.47;;;;;;;20.23;54.50;95268.19;4356993;32;20219;-61
2023/06/02 06:59:32;;;;;;;1.43;1.43;;;;;;;20.13;55.38;95274.97;4385070;32;20224;-61
2023/06/02 07:02:04;;;;;;;1.20;1.20;;;;;;;20.20;55.34;95275.06;4366490;32;20197;-61
2023/06/02 07:04:30;;;;;;;1.97;1.87;;;;;;;20.29;56.27;95274.87;4360402;32;20192;-61
2023/06/02 07:06:57;;;;;;;1.00;1.00;;;;;;;20.36;55.03;95283.09;4355461;32;20223;-62
2023/06/02 07:09:23;;;;;;;1.70;1.60;;;;;;;20.45;55.11;95277.50;4341778;32;20220;-61
2023/06/02 07:11:49;;;;;;;1.77;1.73;;;;;;;20.49;55.24;95287.22;4365615;32;20249;-61
2023/06/02 07:14:18;;;;;;;2.10;2.00;;;;;;;20.54;54.75;95272.66;4382071;32;20199;-61
2023/06/02 07:17:05;;;;;;;1.53;1.53;;;;;;;20.34;54.58;95279.97;4328779;32;20205;-61
2023/06/02 07:19:30;;;;;;;1.63;1.53;;;;;;;20.48;55.29;95279.47;4376248;32;20240;-61
2023/06/02 07:21:56;;;;;;;1.60;1.60;;;;;;;20.54;53.93;95281.53;4366460;32;20211;-61
2023/06/02 07:24:22;;;;;;;1.57;1.47;;;;;;;20.57;54.35;95275.44;4374388;32;20204;-61
2023/06/02 07:26:47;;;;;;;1.57;1.47;;;;;;;20.56;53.81;95287.34;4372634;32;20206;-61
2023/06/02 07:29:14;;;;;;;1.63;1.53;;;;;;;20.53;53.93;95277.28;4368199;32;20192;-62
2023/06/02 07:31:43;;;;;;;1.23;1.23;;;;;;;20.65;53.78;95275.53;4383178;32;20244;-61
2023/06/02 07:34:08;;;;;;;1.00;1.00;;;;;;;20.64;53.89;95276.69;4365986;32;20238;-61
2023/06/02 07:36:35;;;;;;;1.73;1.63;;;;;;;20.61;53.28;95280.09;4347580;32;20197;-61
2023/06/02 07:39:01;;;;;;;1.20;1.20;;;;;;;20.65;53.29;95275.53;4348023;32;20252;-61
2023/06/02 07:41:27;;;;;;;0.87;0.87;;;;;;;20.74;53.04;95281.50;4363077;32;20208;-60
2023/06/02 07:43:55;;;;;;;1.73;1.63;;;;;;;20.75;54.21;95283.84;4367748;32;20250;-61
2023/06/02 07:46:22;;;;;;;1.53;1.43;;;;;;;20.75;52.20;95278.44;4375945;32;20228;-60
2023/06/02 07:48:48;;;;;;;1.40;1.00;;;;;;;20.72;53.49;95275.69;4374690;32;20193;-61
2023/06/02 07:51:14;;;;;;;1.57;1.57;;;;;;;20.73;53.41;95275.31;4343431;32;20223;-61
2023/06/02 07:54:01;;;;;;;1.63;1.53;;;;;;;20.85;54.00;95272.44;4354165;32;20285;-60
2023/06/02 07:56:28;;;;;;;1.60;1.37;;;;;;;20.89;53.16;95275.19;4328458;32;20193;-60
2023/06/02 07:58:55;;;;;;;1.87;1.77;;;;;;;20.88;52.96;95276.34;4359624;32;20195;-61
2023/06/02 08:01:21;;;;;;;1.43;1.43;;;;;;;20.95;52.57;95270.28;4352233;32;20289;-61
2023/06/02 08:03:47;;;;;;;3.93;2.40;;;;;;;20.93;51.48;95274.13;4379255;32;20193;-61
2023/06/02 08:06:13;;;;;;;1.40;1.40;;;;;;;20.73;52.33;95274.53;4374849;32;20185;-61
2023/06/02 08:08:40;;;;;;;2.60;2.03;;;;;;;20.90;53.32;95269.44;4372498;32;20181;-60
2023/06/02 08:11:09;;;;;;;1.43;1.43;;;;;;;20.91;51.58;95275.63;4367873;32;20228;-61
2023/06/02 08:13:34;;;;;;;1.00;0.93;;;;;;;20.96;52.09;95272.62;4343066;32;20196;-61
2023/06/02 08:16:01;;;;;;;3.07;2.07;;;;;;;21.05;52.14;95270.44;4369903;32;20267;-61
2023/06/02 08:18:27;;;;;;;2.50;1.30;;;;;;;21.03;52.21;95274.63;4380489;32;20184;-61
2023/06/02 08:20:55;;;;;;;9.80;1.67;;;;;;;20.97;51.45;95263.41;4377417;32;20272;-60
2023/06/02 08:23:21;;;;;;;0.97;0.97;;;;;;;21.00;52.13;95262.66;4370926;32;20207;-61
2023/06/02 08:25:53;;;;;;;2.23;2.13;;;;;;;20.97;51.07;95270.72;4376909;32;20196;-61
2023/06/02 08:28:24;;;;;;;1.53;1.53;;;;;;;20.97;50.76;95266.09;4381214;32;20199;-61
2023/06/02 08:30:51;;;;;;;1.23;1.23;;;;;;;21.00;51.36;95264.56;4374561;32;20208;-60
2023/06/02 08:33:22;;;;;;;0.80;0.80;;;;;;;21.11;51.38;95258.22;4376363;32;20207;-61
2023/06/02 08:36:13;;;;;;;10.60;2.20;;;;;;;21.11;51.76;95257.44;4347383;32;20259;-61
2023/06/02 08:38:40;;;;;;;3.00;1.63;;;;;;;21.20;51.37;95257.97;4347036;32;20361;-61
2023/06/02 08:41:12;;;;;;;1.70;1.20;;;;;;;21.22;50.80;95253.78;4371825;32;20224;-60
2023/06/02 08:43:39;;;;;;;1.53;1.43;;;;;;;21.30;52.11;95251.97;4376153;32;20180;-61
2023/06/02 08:46:12;;;;;;;1.27;1.27;;;;;;;21.27;50.96;95255.41;4373218;32;20204;-62
2023/06/02 08:48:44;;;;;;;1.93;1.83;;;;;;;21.36;50.86;95255.16;4343547;32;20268;-61
2023/06/02 08:51:24;;;;;;;1.87;1.77;;;;;;;21.37;51.71;95254.78;4358567;32;20203;-60
2023/06/02 08:53:50;;;;;;;0.90;0.90;;;;;;;21.44;50.55;95254.88;4370469;32;20188;-61
2023/06/02 08:56:16;;;;;;;1.40;1.40;;;;;;;21.45;50.42;95258.34;4371018;32;20189;-61
2023/06/02 08:59:05;;;;;;;1.30;1.30;;;;;;;21.44;50.38;95254.88;4367506;32;20196;-60
2023/06/02 09:01:32;;;;;;;1.37;1.37;;;;;;;21.48;49.47;95252.22;4352193;32;20243;-61
2023/06/02 09:03:57;;;;;;;1.27;1.17;;;;;;;21.52;50.14;95253.06;4381933;32;20227;-61
2023/06/02 09:06:29;;;;;;;1.70;1.60;;;;;;;21.58;49.17;95270.50;4381322;32;20201;-61
2023/06/02 09:09:09;;;;;;;1.60;1.50;;;;;;;21.57;48.75;95274.34;4376087;32;20192;-61
2023/06/02 09:11:36;;;;;;;1.43;0.80;;;;;;;21.48;49.16;95268.44;4376802;32;20216;-62
2023/06/02 09:14:22;;;;;;;1.20;1.20;;;;;;;21.50;49.80;95269.63;4369466;32;20193;-60
2023/06/02 09:16:47;;;;;;;1.07;1.07;;;;;;;21.55;49.33;95268.53;4382776;32;20204;-61
2023/06/02 09:19:19;;;;;;;10.50;2.50;;;;;;;21.68;49.10;95269.88;4358871;32;20207;-60
2023/06/02 09:21:51;;;;;;;2.00;1.90;;;;;;;21.71;48.03;95274.53;4367608;32;20228;-61
2023/06/02 09:24:41;;;;;;;1.23;1.23;;;;;;;21.65;48.43;95280.63;4376865;32;20212;-63
2023/06/02 09:27:16;;;;;;;1.13;1.03;;;;;;;21.63;48.37;95270.19;4340604;32;20270;-61
2023/06/02 09:29:45;;;;;;;1.87;1.77;;;;;;;21.69;48.18;95270.66;4346750;32;20189;-61
2023/06/02 09:32:16;;;;;;;1.60;1.50;;;;;;;21.88;47.57;95268.59;4352128;32;20233;-61
2023/06/02 09:34:45;;;;;;;3.30;1.70;;;;;;;21.81;47.60;95268.50;4366128;32;20203;-61
2023/06/02 09:37:16;;;;;;;7.80;1.73;;;;;;;21.92;47.86;95271.34;4314912;32;20277;-61
2023/06/02 09:39:48;;;;;;;4.07;1.93;;;;;;;21.93;48.86;95264.78;4351698;32;20200;-61
2023/06/02 09:42:47;;;;;;;1.33;1.33;;;;;;;22.01;48.44;95266.47;4362101;32;20226;-61
2023/06/02 09:45:14;;;;;;;1.53;1.40;;;;;;;22.19;47.82;95266.69;4383289;32;20192;-61
2023/06/02 09:47:46;;;;;;;1.40;1.40;;;;;;;22.21;46.93;95277.91;4359578;32;20193;-61
2023/06/02 09:50:37;;;;;;;1.13;1.13;;;;;;;22.15;47.08;95274.75;4356401;32;20212;-61
2023/06/02 09:53:14;;;;;;;1.03;1.03;;;;;;;22.20;47.37;95274.44;4349293;32;20247;-61
2023/06/02 09:56:02;;;;;;;3.13;2.07;;;;;;;22.18;47.52;95273.25;4360512;32;20184;-61
2023/06/02 09:58:33;;;;;;;0.97;0.97;;;;;;;22.35;46.93;95274.59;4372898;32;20188;-61
2023/06/02 10:00:59;;;;;;;1.93;1.73;;;;;;;22.49;46.73;95272.03;4360874;32;20200;-61
2023/06/02 10:03:26;;;;;;;1.10;1.03;;;;;;;22.50;47.62;95282.47;4352808;32;20214;-61
2023/06/02 10:06:09;;;;;;;2.60;2.30;;;;;;;22.48;47.16;95273.16;4361548;32;20222;-61
2023/06/02 10:08:54;;;;;;;1.87;1.60;;;;;;;22.60;46.72;95279.12;4375245;32;20214;-61
2023/06/02 10:12:08;;;;;;;1.53;1.53;;;;;;;22.55;46.61;95273.25;4365419;32;20205;-61
2023/06/02 10:14:57;;;;;;;1.60;1.50;;;;;;;22.61;47.02;95283.37;4301882;32;20237;-61
2023/06/02 10:17:54;;;;;;;1.27;1.07;;;;;;;22.47;46.41;95277.03;4345361;32;20212;-61
2023/06/02 10:20:29;;;;;;;0.90;0.90;;;;;;;22.52;47.42;95263.16;4377302;32;20197;-61
2023/06/02 10:23:13;;;;;;;1.23;1.17;;;;;;;22.73;45.21;95268.78;4368659;32;20219;-61
2023/06/02 10:26:19;;;;;;;1.20;1.20;;;;;;;22.73;43.34;95265.31;4371183;32;20197;-61
2023/06/02 10:28:45;;;;;;;1.33;1.33;;;;;;;22.73;43.79;95257.19;4361950;32;20219;-61
2023/06/02 10:31:12;;;;;;;1.07;1.07;;;;;;;22.99;44.58;95265.19;4370219;32;20314;-61
2023/06/02 10:33:45;;;;;;;1.10;1.10;;;;;;;23.02;44.88;95263.69;4373905;32;20272;-61
2023/06/02 10:36:13;;;;;;;1.63;1.53;;;;;;;22.89;45.08;95260.44;4353396;32;20192;-61
2023/06/02 10:38:40;;;;;;;3.80;1.53;;;;;;;22.57;44.74;95257.44;4356793;32;20347;-61
2023/06/02 10:41:08;;;;;;;1.83;1.73;;;;;;;22.38;45.50;95255.69;4370793;32;20241;-61
2023/06/02 10:43:37;;;;;;;0.93;0.93;;;;;;;22.43;45.12;95260.00;4374397;32;22754;-61
2023/06/02 10:46:31;;;;;;;0.93;0.93;;;;;;;22.51;44.57;95256.97;4367908;32;20257;-61
2023/06/02 10:48:58;;;;;;;1.57;1.47;;;;;;;22.68;45.20;95252.91;4355368;32;20252;-61
2023/06/02 10:51:24;;;;;;;1.37;1.37;;;;;;;22.63;45.38;95256.72;4353643;32;20196;-61
2023/06/02 10:54:02;;;;;;;1.20;0.80;;;;;;;22.73;45.01;95251.78;4357335;32;20196;-61
2023/06/02 10:56:42;;;;;;;0.77;0.77;;;;;;;22.74;44.15;95248.72;4368335;32;20195;-61
2023/06/02 10:59:31;;;;;;;1.10;1.10;;;;;;;22.50;43.92;95249.25;4366114;32;20282;-61
2023/06/02 11:01:59;;;;;;;1.90;1.57;;;;;;;22.50;42.82;95250.03;4364981;32;20197;-61
2023/06/02 11:04:33;;;;;;;0.70;0.70;;;;;;;22.47;42.28;95248.06;4371584;32;20189;-62
2023/06/02 11:07:26;;;;;;;0.70;0.70;;;;;;;22.51;41.67;95248.09;4372944;32;20227;-62
2023/06/02 11:10:04;;;;;;;1.83;1.43;;;;;;;22.53;41.93;95243.09;4362275;32;20288;-61
2023/06/02 11:13:03;;;;;;;1.03;1.03;;;;;;;22.49;42.53;95237.66;4348165;32;20235;-62
2023/06/02 11:15:31;;;;;;;1.40;1.40;;;;;;;22.57;42.41;95247.41;4365348;32;20252;-61
2023/06/02 11:18:00;;;;;;;2.00;1.33;;;;;;;22.59;42.71;95236.97;4370545;32;20188;-61
2023/06/02 11:20:34;;;;;;;1.07;1.07;;;;;;;22.53;42.28;95243.09;4347085;32;20185;-61
2023/06/02 11:23:13;;;;;;;0.80;0.80;;;;;;;22.48;42.13;95248.81;4366099;32;20200;-61
2023/06/02 11:25:41;;;;;;;0.50;0.50;;;;;;;22.67;41.21;95239.75;4335437;32;20271;-61
2023/06/02 11:28:31;;;;;;;1.23;1.13;;;;;;;22.78;40.74;95233.31;4383431;32;20239;-62
2023/06/02 11:31:17;;;;;;;1.17;1.10;;;;;;;22.92;41.33;95229.94;4376967;32;20227;-61
2023/06/02 11:33:54;;;;;;;1.20;1.10;;;;;;;23.08;41.85;95235.88;4379163;32;20215;-61
2023/06/02 11:36:29;;;;;;;1.33;1.10;;;;;;;23.18;41.65;95237.87;4371186;32;20199;-63
2023/06/02 11:39:04;;;;;;;3.40;1.03;;;;;;;23.06;42.20;95227.38;4348920;32;20200;-62
2023/06/02 11:41:31;;;;;;;1.17;1.10;;;;;;;23.17;41.93;95222.03;4382664;32;20192;-61
2023/06/02 11:44:07;;;;;;;1.57;1.00;;;;;;;23.10;42.40;95211.91;4382404;32;20314;-61
2023/06/02 11:46:45;;;;;;;1.73;1.00;;;;;;;23.27;41.87;95232.16;4376533;32;20255;-60
2023/06/02 11:49:18;;;;;;;0.70;0.70;;;;;;;23.28;41.52;95229.06;4373462;32;20205;-61